createdAt,value
2022-11-12T00:00:52.847Z,99.90
2022-11-12T00:03:19.668Z,99.90
2022-11-12T00:05:46.921Z,99.90
2022-11-12T00:08:13.919Z,99.90
2022-11-12T00:10:41.659Z,99.90
2022-11-12T00:13:08.332Z,99.90
2022-11-12T00:15:35.860Z,99.90
2022-11-12T00:18:02.710Z,99.90
2022-11-12T00:20:29.441Z,99.90
2022-11-12T00:22:56.234Z,99.90
2022-11-12T00:25:22.955Z,99.90
2022-11-12T00:27:49.687Z,99.90
2022-11-12T00:30:16.676Z,99.90
2022-11-12T00:32:43.495Z,99.90
2022-11-12T00:35:13.646Z,99.90
2022-11-12T00:37:41.005Z,99.90
2022-11-12T00:40:08.609Z,99.80
2022-11-12T00:42:35.308Z,99.20
2022-11-12T00:45:02.019Z,98.90
2022-11-12T00:47:28.680Z,98.60
2022-11-12T00:49:55.366Z,98.60
2022-11-12T00:52:22.079Z,98.00
2022-11-12T00:54:48.776Z,97.60
2022-11-12T00:57:15.442Z,97.60
2022-11-12T00:59:42.193Z,97.50
2022-11-12T01:02:09.053Z,97.60
2022-11-12T01:04:35.844Z,97.60
2022-11-12T01:07:02.584Z,97.90
2022-11-12T01:09:29.301Z,98.00
2022-11-12T01:11:55.981Z,98.10
2022-11-12T01:14:22.669Z,98.10
2022-11-12T01:16:49.367Z,98.20
2022-11-12T01:19:16.406Z,98.10
2022-11-12T01:21:44.256Z,98.50
2022-11-12T01:24:11.528Z,98.20
2022-11-12T01:26:39.220Z,98.00
2022-11-12T01:29:06.222Z,98.20
2022-11-12T01:31:35.350Z,98.20
2022-11-12T01:34:04.539Z,98.20
2022-11-12T01:36:34.042Z,98.00
2022-11-12T01:39:00.761Z,98.00
2022-11-12T01:41:30.429Z,97.90
2022-11-12T01:44:23.085Z,97.70
2022-11-12T01:47:04.884Z,97.50
2022-11-12T01:49:38.416Z,97.60
2022-11-12T01:52:23.115Z,97.70
2022-11-12T01:54:53.794Z,97.80
2022-11-12T01:57:34.441Z,98.10
2022-11-12T02:00:07.854Z,98.20
2022-11-12T02:02:36.414Z,98.30
2022-11-12T02:05:06.339Z,98.40
2022-11-12T02:07:33.581Z,98.30
2022-11-12T02:10:01.550Z,98.40
2022-11-12T02:12:47.165Z,98.40
2022-11-12T02:15:13.893Z,98.50
2022-11-12T02:17:40.557Z,98.50
2022-11-12T02:20:11.695Z,98.40
2022-11-12T02:22:38.383Z,98.40
2022-11-12T02:25:06.284Z,98.50
2022-11-12T02:27:33.217Z,98.50
2022-11-12T02:29:59.864Z,98.50
2022-11-12T02:32:26.541Z,98.60
2022-11-12T02:34:53.221Z,98.50
2022-11-12T02:37:19.954Z,98.80
2022-11-12T02:39:46.639Z,98.70
2022-11-12T02:42:13.399Z,98.80
2022-11-12T02:44:40.180Z,98.80
2022-11-12T02:47:06.854Z,98.80
2022-11-12T02:49:33.525Z,98.70
2022-11-12T02:52:00.176Z,98.70
2022-11-12T02:54:26.892Z,98.80
2022-11-12T02:56:53.563Z,98.70
2022-11-12T02:59:20.209Z,98.60
2022-11-12T03:01:46.856Z,98.60
2022-11-12T03:04:13.523Z,98.70
2022-11-12T03:06:40.672Z,98.70
2022-11-12T03:09:07.357Z,98.70
2022-11-12T03:11:34.058Z,98.70
2022-11-12T03:14:01.867Z,98.80
2022-11-12T03:16:28.600Z,98.80
2022-11-12T03:18:55.268Z,98.90
2022-11-12T03:21:22.010Z,98.90
2022-11-12T03:23:48.642Z,98.90
2022-11-12T03:26:15.405Z,98.80
2022-11-12T03:28:42.101Z,98.70
2022-11-12T03:31:08.792Z,98.70
2022-11-12T03:33:35.436Z,98.60
2022-11-12T03:36:02.115Z,98.80
2022-11-12T03:38:29.090Z,98.80
2022-11-12T03:40:56.040Z,98.80
2022-11-12T03:43:22.731Z,98.70
2022-11-12T03:45:49.413Z,98.80
2022-11-12T03:48:16.051Z,98.80
2022-11-12T03:50:42.883Z,98.80
2022-11-12T03:53:09.968Z,98.90
2022-11-12T03:55:36.730Z,98.90
2022-11-12T03:58:03.699Z,98.90
2022-11-12T04:00:30.953Z,98.90
2022-11-12T04:02:58.015Z,98.90
2022-11-12T04:05:44.154Z,98.90
2022-11-12T04:08:36.458Z,98.90
2022-11-12T04:11:15.186Z,98.90
2022-11-12T04:13:43.121Z,99.20
2022-11-12T04:16:36.003Z,98.90
2022-11-12T04:19:22.785Z,98.90
2022-11-12T04:21:55.771Z,98.90
2022-11-12T04:24:48.351Z,98.90
2022-11-12T04:27:20.621Z,99.00
2022-11-12T04:30:06.995Z,99.30
2022-11-12T04:32:39.501Z,98.80
2022-11-12T04:35:07.755Z,98.80
2022-11-12T04:37:44.716Z,98.80
2022-11-12T04:40:43.896Z,98.80
2022-11-12T04:43:31.300Z,98.70
2022-11-12T04:45:58.941Z,98.60
2022-11-12T04:48:26.096Z,98.50
2022-11-12T04:50:55.744Z,98.50
2022-11-12T04:53:22.822Z,98.50
2022-11-12T04:55:50.935Z,98.50
2022-11-12T04:58:17.897Z,98.50
2022-11-12T05:00:44.547Z,98.60
2022-11-12T05:03:11.273Z,98.70
2022-11-12T05:05:37.953Z,99.10
2022-11-12T05:08:04.688Z,98.80
2022-11-12T05:10:32.099Z,98.80
2022-11-12T05:12:58.891Z,98.80
2022-11-12T05:15:25.728Z,98.80
2022-11-12T05:17:52.846Z,98.80
2022-11-12T05:20:19.538Z,98.80
2022-11-12T05:23:04.558Z,98.90
2022-11-12T05:25:33.154Z,98.90
2022-11-12T05:27:59.854Z,99.00
2022-11-12T05:30:26.599Z,98.90
2022-11-12T05:32:53.329Z,98.90
2022-11-12T05:35:20.028Z,98.60
2022-11-12T05:37:46.752Z,98.50
2022-11-12T05:40:13.742Z,98.30
2022-11-12T05:42:40.419Z,98.20
2022-11-12T05:45:07.903Z,98.00
2022-11-12T05:47:34.557Z,98.00
2022-11-12T05:50:01.236Z,97.90
2022-11-12T05:52:27.926Z,98.00
2022-11-12T05:54:54.615Z,98.00
2022-11-12T05:57:21.363Z,98.00
2022-11-12T05:59:48.032Z,98.00
2022-11-12T06:02:14.821Z,98.00
2022-11-12T06:04:41.553Z,98.00
2022-11-12T06:07:08.307Z,98.20
2022-11-12T06:09:35.024Z,98.30
2022-11-12T06:12:06.134Z,98.40
2022-11-12T06:14:32.838Z,98.50
2022-11-12T06:16:59.512Z,98.60
2022-11-12T06:19:26.213Z,98.70
2022-11-12T06:21:52.940Z,98.70
2022-11-12T06:24:20.005Z,98.80
2022-11-12T06:26:46.700Z,98.90
2022-11-12T06:29:13.375Z,98.90
2022-11-12T06:31:40.045Z,99.00
2022-11-12T06:34:07.030Z,98.90
2022-11-12T06:36:33.792Z,98.80
2022-11-12T06:39:00.497Z,98.70
2022-11-12T06:41:27.187Z,98.60
2022-11-12T06:43:53.854Z,98.10
2022-11-12T06:46:20.548Z,98.40
2022-11-12T06:48:47.218Z,97.90
2022-11-12T06:51:19.243Z,97.70
2022-11-12T06:53:46.442Z,97.60
2022-11-12T06:56:13.437Z,97.40
2022-11-12T06:58:40.603Z,97.50
2022-11-12T07:01:12.060Z,97.40
2022-11-12T07:03:39.984Z,97.20
2022-11-12T07:06:09.502Z,97.10
2022-11-12T07:08:37.276Z,97.30
2022-11-12T07:11:04.595Z,97.30
2022-11-12T07:13:32.986Z,97.40
2022-11-12T07:16:00.985Z,97.10
2022-11-12T07:18:28.501Z,97.30
2022-11-12T07:21:07.817Z,97.20
2022-11-12T07:23:36.112Z,97.40
2022-11-12T07:26:08.460Z,97.40
2022-11-12T07:28:35.116Z,97.40
2022-11-12T07:31:05.893Z,97.40
2022-11-12T07:33:33.356Z,97.50
2022-11-12T07:36:02.131Z,97.50
2022-11-12T07:38:30.185Z,97.50
2022-11-12T07:41:07.661Z,97.60
2022-11-12T07:43:35.771Z,97.50
2022-11-12T07:46:18.944Z,97.40
2022-11-12T07:48:46.680Z,97.50
2022-11-12T07:51:16.461Z,97.50
2022-11-12T07:53:48.367Z,97.40
2022-11-12T07:56:19.746Z,96.80
2022-11-12T07:58:46.741Z,96.70
2022-11-12T08:01:42.978Z,96.40
2022-11-12T08:04:10.803Z,96.30
2022-11-12T08:06:38.288Z,96.10
2022-11-12T08:09:06.802Z,96.20
2022-11-12T08:11:34.295Z,96.30
2022-11-12T08:14:01.329Z,96.20
2022-11-12T08:16:28.015Z,96.20
2022-11-12T08:18:54.730Z,96.10
2022-11-12T08:21:21.673Z,96.20
2022-11-12T08:23:48.517Z,96.10
2022-11-12T08:26:17.356Z,95.90
2022-11-12T08:28:44.195Z,95.90
2022-11-12T08:31:19.571Z,95.90
2022-11-12T08:33:46.349Z,95.80
2022-11-12T08:36:15.182Z,95.80
2022-11-12T08:38:42.422Z,95.70
2022-11-12T08:41:11.625Z,95.70
2022-11-12T08:43:39.972Z,95.50
2022-11-12T08:46:06.886Z,95.50
2022-11-12T08:48:34.422Z,95.40
2022-11-12T08:51:02.753Z,95.00
2022-11-12T08:53:29.401Z,94.70
2022-11-12T08:55:56.613Z,94.70
2022-11-12T08:58:24.211Z,94.50
2022-11-12T09:00:51.651Z,94.40
2022-11-12T09:03:20.600Z,93.70
2022-11-12T09:05:47.783Z,94.20
2022-11-12T09:08:18.796Z,94.40
2022-11-12T09:10:46.126Z,94.30
2022-11-12T09:13:14.115Z,94.00
2022-11-12T09:15:41.280Z,94.00
2022-11-12T09:18:13.401Z,93.90
2022-11-12T09:20:40.062Z,93.80
2022-11-12T09:23:11.906Z,91.80
2022-11-12T09:25:39.396Z,93.10
2022-11-12T09:28:25.390Z,92.10
2022-11-12T09:30:53.323Z,92.30
2022-11-12T09:33:23.704Z,92.70
2022-11-12T09:35:51.456Z,92.80
2022-11-12T09:38:19.127Z,92.00
2022-11-12T09:40:52.007Z,91.30
2022-11-12T09:43:34.858Z,92.20
2022-11-12T09:46:35.004Z,92.60
2022-11-12T09:49:33.046Z,92.70
2022-11-12T09:52:03.769Z,92.90
2022-11-12T09:54:32.845Z,92.70
2022-11-12T09:56:59.638Z,92.90
2022-11-12T09:59:31.559Z,92.80
2022-11-12T10:02:39.481Z,93.00
2022-11-12T10:05:26.622Z,93.50
2022-11-12T10:08:32.184Z,93.70
2022-11-12T10:11:25.299Z,93.80
2022-11-12T10:14:11.322Z,94.00
2022-11-12T10:17:04.162Z,94.20
2022-11-12T10:19:48.741Z,94.50
2022-11-12T10:22:41.000Z,95.00
2022-11-12T10:25:17.814Z,95.10
2022-11-12T10:27:45.481Z,94.90
2022-11-12T10:30:20.940Z,95.00
2022-11-12T10:32:48.774Z,95.00
2022-11-12T10:35:21.853Z,95.10
2022-11-12T10:37:59.164Z,95.40
2022-11-12T10:40:30.049Z,95.60
2022-11-12T10:43:02.803Z,95.40
2022-11-12T10:45:30.009Z,95.50
2022-11-12T10:47:57.354Z,95.70
2022-11-12T10:50:43.431Z,96.10
2022-11-12T10:53:12.033Z,96.30
2022-11-12T10:55:55.791Z,96.40
2022-11-12T10:58:22.533Z,96.80
2022-11-12T11:00:59.822Z,96.80
2022-11-12T11:03:34.247Z,96.70
2022-11-12T11:06:15.290Z,96.90
2022-11-12T11:08:47.684Z,97.10
2022-11-12T11:11:25.274Z,97.20
2022-11-12T11:13:57.259Z,97.30
2022-11-12T11:16:26.270Z,97.20
2022-11-12T11:19:04.675Z,97.40
2022-11-12T11:21:49.896Z,97.30
2022-11-12T11:24:40.139Z,97.80
2022-11-12T11:27:38.756Z,97.50
2022-11-12T11:30:17.203Z,97.50
2022-11-12T11:33:09.686Z,97.50
2022-11-12T11:35:51.559Z,97.50
2022-11-12T11:38:56.375Z,97.40
2022-11-12T11:41:44.946Z,97.60
2022-11-12T11:44:14.976Z,97.60
2022-11-12T11:47:06.738Z,97.80
2022-11-12T11:49:58.351Z,98.10
2022-11-12T11:52:40.068Z,98.20
2022-11-12T11:55:10.061Z,98.00
2022-11-12T11:57:51.010Z,97.90
2022-11-12T12:00:23.608Z,97.80
2022-11-12T12:03:11.274Z,97.70
2022-11-12T12:06:02.108Z,97.70
2022-11-12T12:08:35.010Z,97.70
2022-11-12T12:11:17.113Z,97.70
2022-11-12T12:14:05.205Z,97.60
2022-11-12T12:16:43.758Z,97.40
2022-11-12T12:19:44.537Z,97.50
2022-11-12T12:22:16.165Z,97.50
2022-11-12T12:24:51.524Z,97.40
2022-11-12T12:27:22.055Z,97.40
2022-11-12T12:29:52.358Z,97.40
2022-11-12T12:32:32.784Z,97.30
2022-11-12T12:35:22.777Z,97.30
2022-11-12T12:38:15.757Z,97.40
2022-11-12T12:40:49.960Z,97.50
2022-11-12T12:43:38.399Z,97.40
2022-11-12T12:46:06.039Z,97.50
2022-11-12T12:48:39.501Z,97.50
2022-11-12T12:51:06.365Z,97.60
2022-11-12T12:53:35.269Z,97.70
2022-11-12T12:56:05.836Z,97.60
2022-11-12T12:58:48.851Z,97.60
2022-11-12T13:01:22.445Z,97.70
2022-11-12T13:03:54.163Z,97.70
2022-11-12T13:06:23.796Z,97.70
2022-11-12T13:09:25.787Z,97.70
2022-11-12T13:12:06.712Z,97.80
2022-11-12T13:14:38.743Z,97.70
2022-11-12T13:17:08.395Z,97.70
2022-11-12T13:20:10.090Z,97.80
2022-11-12T13:22:36.916Z,97.80
2022-11-12T13:25:26.110Z,97.90
2022-11-12T13:27:52.722Z,97.90
2022-11-12T13:30:22.084Z,98.00
2022-11-12T13:32:48.880Z,98.00
2022-11-12T13:35:31.802Z,98.10
2022-11-12T13:38:12.142Z,98.10
2022-11-12T13:40:49.322Z,98.00
2022-11-12T13:43:16.365Z,97.90
2022-11-12T13:45:55.399Z,97.70
2022-11-12T13:48:45.965Z,97.80
2022-11-12T13:51:31.412Z,97.70
2022-11-12T13:53:58.580Z,97.80
2022-11-12T13:56:31.032Z,97.80
2022-11-12T13:59:15.145Z,97.90
2022-11-12T14:01:42.496Z,97.90
2022-11-12T14:04:14.636Z,98.00
2022-11-12T14:06:53.485Z,98.00
2022-11-12T14:09:20.130Z,98.00
2022-11-12T14:12:05.383Z,98.20
2022-11-12T14:14:59.229Z,98.20
2022-11-12T14:17:38.776Z,98.20
2022-11-12T14:20:30.563Z,98.30
2022-11-12T14:22:58.196Z,98.40
2022-11-12T14:25:26.444Z,98.40
2022-11-12T14:27:55.012Z,98.50
2022-11-12T14:30:32.140Z,98.50
2022-11-12T14:33:07.376Z,98.60
2022-11-12T14:35:35.294Z,98.70
2022-11-12T14:38:15.732Z,98.80
2022-11-12T14:40:49.333Z,98.80
2022-11-12T14:43:43.306Z,98.80
2022-11-12T14:46:22.940Z,99.00
2022-11-12T14:48:53.785Z,98.90
2022-11-12T14:51:20.993Z,99.00
2022-11-12T14:54:00.632Z,99.00
2022-11-12T14:56:42.156Z,99.10
2022-11-12T14:59:12.626Z,99.10
2022-11-12T15:04:26.661Z,99.30
2022-11-12T15:06:58.344Z,99.30
2022-11-12T15:09:33.489Z,99.50
2022-11-12T15:12:00.384Z,99.70
2022-11-12T15:14:27.180Z,99.80
2022-11-12T15:16:54.016Z,99.80
2022-11-12T15:19:28.192Z,99.90
2022-11-12T15:21:57.852Z,99.90
2022-11-12T15:24:31.739Z,99.90
2022-11-12T15:27:00.819Z,99.90
2022-11-12T15:29:30.953Z,99.90
2022-11-12T15:32:23.632Z,99.90
2022-11-12T15:34:50.668Z,99.90
2022-11-12T15:37:17.473Z,99.90
2022-11-12T15:39:50.033Z,99.90
2022-11-12T15:42:36.551Z,99.90
2022-11-12T15:45:09.912Z,99.90
2022-11-12T15:47:36.664Z,99.90
2022-11-12T15:50:16.589Z,99.90
2022-11-12T15:52:43.740Z,99.90
2022-11-12T15:55:12.279Z,99.90
2022-11-12T15:57:47.378Z,99.90
2022-11-12T16:00:24.528Z,99.90
2022-11-12T16:03:17.102Z,99.90
2022-11-12T16:05:44.197Z,99.90
2022-11-12T16:08:11.221Z,99.90
2022-11-12T16:10:42.870Z,99.90
2022-11-12T16:13:36.093Z,99.90
2022-11-12T16:16:06.385Z,99.90
2022-11-12T16:18:33.131Z,99.90
2022-11-12T16:20:59.785Z,99.90
2022-11-12T16:23:26.819Z,99.90
2022-11-12T16:25:53.684Z,99.90
2022-11-12T16:28:20.546Z,99.90
2022-11-12T16:30:47.846Z,99.90
2022-11-12T16:33:14.724Z,99.90
2022-11-12T16:35:41.472Z,99.90
2022-11-12T16:38:17.014Z,99.90
2022-11-12T16:40:45.198Z,99.90
2022-11-12T16:43:12.136Z,99.90
2022-11-12T16:45:40.670Z,99.90
2022-11-12T16:48:20.018Z,99.90
2022-11-12T16:50:47.266Z,99.90
2022-11-12T16:53:14.210Z,99.90
2022-11-12T16:55:41.310Z,99.90
2022-11-12T16:58:11.713Z,99.90
2022-11-12T17:00:38.953Z,99.90
2022-11-12T17:03:05.718Z,99.90
2022-11-12T17:05:32.467Z,99.90
2022-11-12T17:07:59.427Z,99.90
2022-11-12T17:10:26.223Z,99.90
2022-11-12T17:12:53.251Z,99.90
2022-11-12T17:15:20.452Z,99.90
2022-11-12T17:17:47.144Z,99.90
2022-11-12T17:20:14.098Z,99.90
2022-11-12T17:22:40.824Z,99.90
2022-11-12T17:25:08.293Z,99.90
2022-11-12T17:27:35.016Z,99.90
2022-11-12T17:30:02.300Z,99.90
2022-11-12T17:32:29.206Z,99.90
2022-11-12T17:34:55.889Z,99.90
2022-11-12T17:37:22.534Z,99.90
2022-11-12T17:39:49.414Z,99.90
2022-11-12T17:42:16.051Z,99.90
2022-11-12T17:44:42.749Z,99.90
2022-11-12T17:47:09.408Z,99.90
2022-11-12T17:49:36.130Z,99.90
2022-11-12T17:52:02.810Z,99.90
2022-11-12T17:54:29.538Z,99.90
2022-11-12T17:56:56.191Z,99.90
2022-11-12T17:59:22.853Z,99.90
2022-11-12T18:01:49.485Z,99.90
2022-11-12T18:04:16.154Z,99.90
2022-11-12T18:06:42.962Z,99.90
2022-11-12T18:09:17.078Z,99.90
2022-11-12T18:11:46.810Z,99.90
2022-11-12T18:14:14.282Z,99.90
2022-11-12T18:16:41.411Z,99.90
2022-11-12T18:19:10.823Z,99.90
2022-11-12T18:21:39.720Z,99.90
2022-11-12T18:24:07.284Z,99.90
2022-11-12T18:26:34.060Z,99.90
2022-11-12T18:29:01.160Z,99.90
2022-11-12T18:31:28.136Z,99.90
2022-11-12T18:33:55.649Z,99.90
2022-11-12T18:36:25.061Z,99.90
2022-11-12T18:38:52.964Z,99.90
2022-11-12T18:41:25.835Z,99.90
2022-11-12T18:43:53.378Z,99.90
2022-11-12T18:46:20.170Z,99.90
2022-11-12T18:48:47.563Z,99.90
2022-11-12T18:51:20.781Z,99.90
2022-11-12T18:53:47.623Z,99.90
2022-11-12T18:56:16.662Z,99.90
2022-11-12T18:58:43.632Z,99.90
2022-11-12T19:01:16.222Z,99.90
2022-11-12T19:03:43.735Z,99.90
2022-11-12T19:06:14.873Z,99.90
2022-11-12T19:08:42.091Z,99.90
2022-11-12T19:11:14.353Z,99.90
2022-11-12T19:13:41.835Z,99.90
2022-11-12T19:16:11.797Z,99.90
2022-11-12T19:18:40.678Z,99.90
2022-11-12T19:21:12.921Z,99.90
2022-11-12T19:23:41.253Z,99.90
2022-11-12T19:26:10.897Z,99.90
2022-11-12T19:28:37.958Z,99.90
2022-11-12T19:31:06.512Z,99.90
2022-11-12T19:33:34.375Z,99.90
2022-11-12T19:36:06.625Z,99.90
2022-11-12T19:38:34.082Z,99.90
2022-11-12T19:41:05.188Z,99.90
2022-11-12T19:43:32.318Z,99.90
2022-11-12T19:45:59.055Z,99.90
2022-11-12T19:48:27.015Z,99.90
2022-11-12T19:50:54.504Z,99.90
2022-11-12T19:53:21.310Z,99.90
2022-11-12T19:55:48.390Z,99.90
2022-11-12T19:58:15.155Z,99.90
2022-11-12T20:00:41.959Z,99.90
2022-11-12T20:03:08.700Z,99.90
2022-11-12T20:05:35.462Z,99.90
2022-11-12T20:08:02.370Z,99.90
2022-11-12T20:10:29.377Z,99.90
2022-11-12T20:12:56.309Z,99.90
2022-11-12T20:15:23.058Z,99.90
2022-11-12T20:17:49.810Z,99.90
2022-11-12T20:20:16.632Z,99.90
2022-11-12T20:22:43.374Z,99.90
2022-11-12T20:25:10.240Z,99.90
2022-11-12T20:27:37.041Z,99.90
2022-11-12T20:30:04.662Z,99.90
2022-11-12T20:32:31.413Z,99.90
2022-11-12T20:34:58.170Z,99.90
2022-11-12T20:37:25.753Z,99.90
2022-11-12T20:39:52.664Z,99.90
2022-11-12T20:42:19.438Z,99.90
2022-11-12T20:44:46.192Z,99.90
2022-11-12T20:47:13.191Z,99.90
2022-11-12T20:49:39.981Z,99.90
2022-11-12T20:52:06.777Z,99.90
2022-11-12T20:54:33.629Z,99.90
2022-11-12T20:57:02.932Z,99.90
2022-11-12T20:59:29.706Z,99.90
2022-11-12T21:01:57.699Z,99.90
2022-11-12T21:04:24.769Z,99.90
2022-11-12T21:06:51.629Z,99.90
2022-11-12T21:09:18.758Z,99.90
2022-11-12T21:11:45.466Z,99.90
2022-11-12T21:14:12.375Z,99.90
2022-11-12T21:16:39.097Z,99.90
2022-11-12T21:19:05.926Z,99.90
2022-11-12T21:21:32.774Z,99.90
2022-11-12T21:24:04.553Z,99.90
2022-11-12T21:26:32.067Z,99.90
2022-11-12T21:28:58.843Z,99.90
2022-11-12T21:31:32.255Z,99.90
2022-11-12T21:34:07.019Z,99.90
2022-11-12T21:36:35.451Z,99.90
2022-11-12T21:39:03.610Z,99.90
2022-11-12T21:41:33.481Z,99.90
2022-11-12T21:44:00.224Z,99.90
2022-11-12T21:46:29.456Z,99.90
2022-11-12T21:48:57.025Z,99.90
2022-11-12T21:51:28.187Z,99.90
2022-11-12T21:53:57.218Z,99.90
2022-11-12T21:56:24.832Z,99.50
2022-11-12T21:58:53.772Z,99.30
2022-11-12T22:01:22.598Z,99.00
2022-11-12T22:03:50.414Z,98.90
2022-11-12T22:06:17.937Z,98.60
2022-11-12T22:08:44.848Z,98.60
2022-11-12T22:11:16.244Z,98.50
2022-11-12T22:13:42.976Z,98.40
2022-11-12T22:16:18.114Z,98.30
2022-11-12T22:18:48.168Z,98.00
2022-11-12T22:21:17.393Z,98.30
2022-11-12T22:23:44.282Z,98.30
2022-11-12T22:26:14.016Z,98.30
2022-11-12T22:28:40.876Z,98.40
2022-11-12T22:31:12.827Z,98.40
2022-11-12T22:33:40.072Z,98.40
2022-11-12T22:36:10.007Z,98.40
2022-11-12T22:38:38.976Z,98.50
2022-11-12T22:41:08.009Z,98.50
2022-11-12T22:43:34.874Z,98.50
2022-11-12T22:46:12.811Z,98.60
2022-11-12T22:48:40.008Z,98.50
2022-11-12T22:51:10.211Z,98.50
2022-11-12T22:53:37.104Z,98.50
2022-11-12T22:56:09.441Z,98.60
2022-11-12T22:58:40.642Z,98.60
2022-11-12T23:01:09.401Z,98.70
2022-11-12T23:03:36.774Z,98.60
2022-11-12T23:06:05.755Z,98.90
2022-11-12T23:08:32.756Z,98.50
2022-11-12T23:11:08.579Z,98.60
2022-11-12T23:13:35.932Z,98.40
2022-11-12T23:16:06.525Z,98.40
2022-11-12T23:18:33.351Z,98.40
2022-11-12T23:21:20.047Z,98.20
2022-11-12T23:23:46.943Z,98.20
2022-11-12T23:26:17.992Z,98.20
2022-11-12T23:28:44.863Z,98.10
2022-11-12T23:31:15.182Z,98.10
2022-11-12T23:33:49.921Z,98.10
2022-11-12T23:36:16.600Z,98.10
2022-11-12T23:38:44.033Z,98.10
2022-11-12T23:41:16.406Z,98.10
2022-11-12T23:43:43.486Z,98.10
2022-11-12T23:46:11.236Z,98.20
2022-11-12T23:48:38.021Z,98.20
2022-11-12T23:51:12.453Z,98.20
2022-11-12T23:53:39.761Z,98.20
2022-11-12T23:56:09.346Z,98.20
2022-11-12T23:58:37.210Z,98.20
